Time;durP1;ratioP1;P1;durP2;ratioP2;P2;SDS_P1;SDS_P2;PMS_P1;PMS_P2;Temp;Humidity;BMP_temperature;BMP_pressure;BME280_temperature;BME280_humidity;BME280_pressure;Samples;Min_cycle;Max_cycle;Signal;HPM_P1;HPM_P2
2022/10/13 00:00:09;;;;;;;536.63;220.57;;;;;;;12.63;83.06;100442.22;308463;32;1346;-76
2022/10/13 00:00:19;;;;;;;537.97;218.93;;;;;;;12.64;82.83;100443.06;307293;31;2495;-76
2022/10/13 00:00:30;;;;;;;537.77;211.43;;;;;;;12.63;82.65;100438.72;306148;31;2652;-76
2022/10/13 00:00:41;;;;;;;539.63;215.98;;;;;;;12.61;82.63;100445.81;308394;31;1342;-76
2022/10/13 00:00:51;;;;;;;540.58;219.80;;;;;;;12.58;82.95;100446.75;304123;32;2710;-76
2022/10/13 00:01:14;;;;;;;539.83;224.40;;;;;;;12.57;82.70;100445.06;303782;32;2917;-76
2022/10/13 00:01:24;;;;;;;534.03;215.43;;;;;;;12.57;82.67;100444.19;305253;32;920;-75
2022/10/13 00:01:35;;;;;;;535.35;213.95;;;;;;;12.56;83.07;100445.13;302894;32;3627;-75
2022/10/13 00:01:45;;;;;;;536.43;213.17;;;;;;;12.55;83.01;100440.81;304163;32;2679;-75
2022/10/13 00:01:56;;;;;;;537.58;212.60;;;;;;;12.54;82.98;100449.59;306974;32;1604;-75
2022/10/13 00:02:06;;;;;;;535.43;215.20;;;;;;;12.53;82.92;100442.63;305424;32;2204;-75
2022/10/13 00:02:16;;;;;;;536.33;214.10;;;;;;;12.55;82.79;100443.44;303502;32;2674;-75
2022/10/13 00:02:27;;;;;;;538.10;215.47;;;;;;;12.54;82.40;100449.59;300984;32;814;-75
2022/10/13 00:02:37;;;;;;;539.72;216.50;;;;;;;12.53;82.80;100453.13;293730;33;3542;-76
2022/10/13 00:02:47;;;;;;;541.73;217.27;;;;;;;12.53;82.74;100447.88;291504;33;4104;-76
2022/10/13 00:03:00;;;;;;;538.97;215.80;;;;;;;12.54;82.81;100454.84;288619;33;4062;-76
2022/10/13 00:03:10;;;;;;;537.22;213.73;;;;;;;12.52;82.67;100454.91;287377;34;908;-76
2022/10/13 00:03:21;;;;;;;538.13;213.73;;;;;;;12.53;82.57;100447.88;286191;34;4219;-76
2022/10/13 00:03:31;;;;;;;536.83;214.55;;;;;;;12.53;82.88;100448.72;286365;34;5021;-76
2022/10/13 00:03:44;;;;;;;537.00;216.53;;;;;;;12.52;82.69;100451.41;287300;34;1452;-76
2022/10/13 00:03:55;;;;;;;536.30;218.75;;;;;;;12.50;82.73;100453.22;285406;34;978;-76
2022/10/13 00:04:05;;;;;;;536.53;217.80;;;;;;;12.49;82.92;100443.63;284691;34;4064;-76
2022/10/13 00:04:16;;;;;;;537.30;215.95;;;;;;;12.48;82.89;100449.81;281916;34;3178;-76
2022/10/13 00:04:26;;;;;;;538.03;215.40;;;;;;;12.49;82.92;100454.13;282742;35;807;-77
2022/10/13 00:04:37;;;;;;;538.83;214.18;;;;;;;12.48;82.83;100445.41;278534;34;5525;-76
2022/10/13 00:04:47;;;;;;;539.00;212.23;;;;;;;12.50;82.92;100458.47;275568;35;7031;-76
2022/10/13 00:04:58;;;;;;;539.58;213.68;;;;;;;12.50;82.61;100453.22;278126;35;1107;-76
2022/10/13 00:05:08;;;;;;;539.70;214.57;;;;;;;12.51;82.68;100444.44;277278;35;1332;-76
2022/10/13 00:05:19;;;;;;;536.70;212.03;;;;;;;12.50;82.45;100445.34;275079;35;6013;-76
2022/10/13 00:05:29;;;;;;;534.78;208.23;;;;;;;12.51;82.68;100447.06;275720;35;6134;-76
2022/10/13 00:05:41;;;;;;;534.60;207.67;;;;;;;12.50;82.54;100447.97;278317;35;847;-76
2022/10/13 00:05:52;;;;;;;532.67;208.13;;;;;;;12.53;82.67;100447.88;275547;35;7206;-76
2022/10/13 00:07:36;;;;;;;516.35;197.43;;;;;;;12.48;82.51;100449.81;2485860;27;20494;-75
2022/10/13 00:07:46;;;;;;;535.60;216.27;;;;;;;12.49;82.45;100451.50;352820;28;1175;-75
2022/10/13 00:07:57;;;;;;;533.08;215.25;;;;;;;12.50;82.32;100458.47;350198;28;1196;-75
2022/10/13 00:08:07;;;;;;;536.00;221.00;;;;;;;12.49;82.35;100451.50;347789;28;993;-75
2022/10/13 00:08:19;;;;;;;534.30;215.20;;;;;;;12.48;82.32;100449.81;347395;28;1264;-75
2022/10/13 00:08:30;;;;;;;534.30;208.50;;;;;;;12.46;82.32;100444.59;347474;28;1459;-75
2022/10/13 00:08:40;;;;;;;534.00;208.55;;;;;;;12.47;82.04;100450.72;347383;28;1207;-76
2022/10/13 00:08:51;;;;;;;534.27;213.77;;;;;;;12.45;82.05;100447.28;348302;28;1334;-76
2022/10/13 00:09:01;;;;;;;534.70;214.80;;;;;;;12.42;82.24;100447.38;347481;28;914;-76
2022/10/13 00:09:12;;;;;;;534.78;214.88;;;;;;;12.43;82.18;100446.47;347732;28;1368;-75
2022/10/13 00:09:22;;;;;;;534.23;212.73;;;;;;;12.44;82.01;100450.81;350231;28;1224;-75
2022/10/13 00:09:32;;;;;;;536.13;219.37;;;;;;;12.41;82.41;100443.03;350023;28;1436;-75
2022/10/13 00:09:43;;;;;;;537.25;221.85;;;;;;;12.42;82.24;100450.00;350148;28;1333;-77
2022/10/13 00:09:53;;;;;;;537.70;222.67;;;;;;;12.43;82.35;100449.09;351613;28;1365;-76
2022/10/13 00:10:04;;;;;;;537.28;221.48;;;;;;;12.43;82.11;100451.72;350168;28;1203;-76
2022/10/13 00:10:14;;;;;;;534.75;215.93;;;;;;;12.41;82.40;100446.53;348780;28;1260;-76
2022/10/13 00:10:25;;;;;;;534.17;216.10;;;;;;;12.43;82.34;100451.72;347508;28;1291;-76
2022/10/13 00:10:36;;;;;;;533.17;214.80;;;;;;;12.45;82.33;100449.91;347574;28;813;-76
2022/10/13 00:10:48;;;;;;;537.13;217.65;;;;;;;12.44;82.29;100456.06;348805;28;1445;-76
2022/10/13 00:10:59;;;;;;;540.28;223.82;;;;;;;12.44;82.18;100448.19;347393;28;1278;-76
2022/10/13 00:11:14;;;;;;;541.33;226.55;;;;;;;12.43;82.27;100451.72;346251;28;1141;-76
2022/10/13 00:11:26;;;;;;;535.97;217.20;;;;;;;12.41;82.38;100454.41;347223;28;1286;-76
2022/10/13 00:11:37;;;;;;;537.13;215.93;;;;;;;12.40;82.35;100450.06;346025;28;1515;-76
2022/10/13 00:11:47;;;;;;;539.25;220.00;;;;;;;12.40;82.19;100449.22;343824;28;1359;-76
2022/10/13 00:11:57;;;;;;;540.97;226.60;;;;;;;12.39;82.57;100458.00;344651;28;962;-76
2022/10/13 00:12:08;;;;;;;538.80;224.05;;;;;;;12.39;82.31;100447.50;343589;28;1090;-76
2022/10/13 00:12:18;;;;;;;537.83;222.73;;;;;;;12.36;82.35;100445.84;343531;28;1147;-76
2022/10/13 00:12:28;;;;;;;536.28;219.30;;;;;;;12.36;82.30;100447.59;342183;28;937;-76
2022/10/13 00:12:39;;;;;;;537.30;221.80;;;;;;;12.37;82.32;100451.94;343314;28;912;-76
2022/10/13 00:12:49;;;;;;;538.25;225.80;;;;;;;12.38;82.62;100453.66;343429;28;1198;-76
2022/10/13 00:13:00;;;;;;;539.80;230.57;;;;;;;12.36;82.60;100443.22;343453;28;1187;-76
2022/10/13 00:13:10;;;;;;;540.63;232.27;;;;;;;12.37;82.19;100451.94;342128;28;1310;-76
2022/10/13 00:13:21;;;;;;;542.90;235.20;;;;;;;12.37;82.33;100447.53;344681;28;1212;-76
2022/10/13 00:13:31;;;;;;;543.63;229.87;;;;;;;12.39;82.38;100458.00;342794;28;1307;-76
2022/10/13 00:13:42;;;;;;;541.00;221.25;;;;;;;12.38;82.03;100449.25;340644;29;964;-76
2022/10/13 00:13:55;;;;;;;539.22;217.43;;;;;;;12.38;82.33;100449.25;339406;29;1323;-77
2022/10/13 00:14:05;;;;;;;536.67;218.82;;;;;;;12.38;82.37;100448.41;338198;29;965;-76
2022/10/13 00:14:15;;;;;;;535.87;221.03;;;;;;;12.38;82.41;100458.91;340089;29;1318;-76
2022/10/13 00:14:26;;;;;;;536.42;221.35;;;;;;;12.36;82.41;100456.34;338217;29;1022;-76
2022/10/13 00:14:36;;;;;;;537.00;220.20;;;;;;;12.37;82.54;100452.78;336815;29;1229;-76
2022/10/13 00:14:47;;;;;;;536.88;220.68;;;;;;;12.36;82.46;100450.22;334440;29;1313;-76
2022/10/13 00:14:57;;;;;;;536.67;221.07;;;;;;;12.38;82.72;100448.41;338076;29;935;-76
2022/10/13 00:15:08;;;;;;;536.87;221.80;;;;;;;12.38;82.63;100451.03;338210;29;874;-77
2022/10/13 00:15:18;;;;;;;537.13;220.67;;;;;;;12.37;82.48;100446.69;333412;29;3754;-75
2022/10/13 00:15:29;;;;;;;539.83;223.13;;;;;;;12.37;82.40;100451.94;333881;29;3054;-77
2022/10/13 00:15:40;;;;;;;544.77;226.67;;;;;;;12.35;82.62;100449.38;334361;29;905;-77
2022/10/13 00:15:50;;;;;;;544.83;227.20;;;;;;;12.34;82.79;100452.91;329197;29;3181;-77
2022/10/13 00:16:01;;;;;;;542.50;225.10;;;;;;;12.34;82.77;100455.53;333233;29;1339;-77
2022/10/13 00:16:13;;;;;;;539.03;223.05;;;;;;;12.34;82.89;100450.28;335832;29;1681;-77
2022/10/13 00:16:23;;;;;;;538.78;223.77;;;;;;;12.33;83.17;100456.44;334747;29;1434;-77
2022/10/13 00:16:34;;;;;;;539.93;225.03;;;;;;;12.32;82.75;100450.31;334000;29;2006;-77
2022/10/13 00:16:44;;;;;;;540.55;229.07;;;;;;;12.33;82.73;100451.19;334057;29;1682;-77
2022/10/13 00:16:54;;;;;;;541.33;228.77;;;;;;;12.31;83.03;100453.88;331609;29;1353;-77
2022/10/13 00:17:05;;;;;;;540.88;227.07;;;;;;;12.30;82.79;100454.78;334646;29;1299;-77
2022/10/13 00:17:15;;;;;;;539.13;223.07;;;;;;;12.32;82.98;100452.94;332633;29;1229;-77
2022/10/13 00:17:25;;;;;;;537.58;217.60;;;;;;;12.32;82.95;100450.31;326585;30;1492;-77
2022/10/13 00:17:36;;;;;;;539.00;219.53;;;;;;;12.32;82.89;100454.72;326919;30;923;-77
2022/10/13 00:17:46;;;;;;;541.07;222.93;;;;;;;12.32;82.71;100452.94;326898;29;1620;-77
2022/10/13 00:17:57;;;;;;;542.05;225.95;;;;;;;12.34;82.76;100452.91;326233;29;1542;-77
2022/10/13 00:18:07;;;;;;;542.17;227.03;;;;;;;12.33;82.76;100456.44;326818;30;1240;-77
2022/10/13 00:18:18;;;;;;;540.28;223.38;;;;;;;12.33;82.85;100454.66;330928;29;2022;-76
2022/10/13 00:18:28;;;;;;;541.37;224.97;;;;;;;12.34;82.95;100450.28;328481;29;2333;-76
2022/10/13 00:18:39;;;;;;;542.50;224.73;;;;;;;12.36;82.74;100455.47;328041;30;1085;-76
2022/10/13 00:18:49;;;;;;;543.55;227.02;;;;;;;12.36;82.84;100452.84;326695;30;1661;-76
2022/10/13 00:19:00;;;;;;;544.70;223.90;;;;;;;12.37;82.54;100454.56;327164;30;1190;-76
2022/10/13 00:19:10;;;;;;;541.40;222.38;;;;;;;12.38;82.83;100453.66;325417;30;1318;-76
2022/10/13 00:19:20;;;;;;;542.47;226.43;;;;;;;12.40;82.66;100451.84;325612;30;1318;-76
2022/10/13 00:19:32;;;;;;;540.22;228.30;;;;;;;12.40;82.38;100457.09;324064;30;1866;-76
2022/10/13 00:19:42;;;;;;;541.13;230.43;;;;;;;12.38;82.61;100456.28;323547;30;1642;-76
2022/10/13 00:19:52;;;;;;;540.20;227.03;;;;;;;12.36;82.68;100445.84;325667;30;865;-76
2022/10/13 00:20:04;;;;;;;540.65;225.38;;;;;;;12.38;82.58;100458.91;322413;30;2116;-76
2022/10/13 00:20:14;;;;;;;541.28;225.77;;;;;;;12.36;82.71;100452.84;317878;30;2350;-76
2022/10/13 00:20:25;;;;;;;539.92;223.20;;;;;;;12.35;82.62;100454.63;314677;30;2606;-76
2022/10/13 00:20:36;;;;;;;540.00;223.40;;;;;;;12.35;82.24;100453.75;319704;30;1274;-76
2022/10/13 00:20:47;;;;;;;538.50;222.15;;;;;;;12.31;82.21;100458.25;320087;30;2686;-76
2022/10/13 00:20:58;;;;;;;538.10;225.57;;;;;;;12.32;82.19;100460.81;317898;30;1935;-76
2022/10/13 00:21:10;;;;;;;537.67;223.20;;;;;;;12.30;82.15;100457.41;319335;30;1359;-76
2022/10/13 00:21:22;;;;;;;538.22;222.68;;;;;;;12.30;82.19;100449.53;316693;31;990;-76
2022/10/13 00:21:32;;;;;;;537.22;221.82;;;;;;;12.29;81.91;100450.44;313116;31;2059;-76
2022/10/13 00:21:42;;;;;;;539.30;224.70;;;;;;;12.29;81.73;100450.44;310465;31;2480;-76
2022/10/13 00:21:53;;;;;;;539.25;220.90;;;;;;;12.28;81.78;100448.72;310989;31;1340;-76
2022/10/13 00:22:03;;;;;;;540.60;223.70;;;;;;;12.29;81.22;100453.06;309490;31;2323;-76
2022/10/13 00:22:14;;;;;;;539.20;223.73;;;;;;;12.29;81.47;100458.31;309134;31;3004;-76
2022/10/13 00:22:26;;;;;;;539.03;225.15;;;;;;;12.24;81.22;100454.97;307482;32;1085;-76
2022/10/13 00:22:36;;;;;;;539.83;226.95;;;;;;;12.23;81.16;100455.03;303257;32;1406;-77
2022/10/13 00:22:47;;;;;;;542.75;229.57;;;;;;;12.23;80.90;100455.88;304385;32;3497;-77
2022/10/13 00:22:57;;;;;;;542.87;229.03;;;;;;;12.23;80.55;100461.13;302225;32;3275;-77
2022/10/13 00:23:07;;;;;;;541.38;223.65;;;;;;;12.22;80.98;100454.16;304975;32;1767;-77
2022/10/13 00:23:18;;;;;;;540.47;223.37;;;;;;;12.20;81.04;100455.13;299746;32;2552;-77
2022/10/13 00:23:28;;;;;;;542.78;223.80;;;;;;;12.21;80.74;100454.22;301062;32;2302;-77
2022/10/13 00:23:39;;;;;;;543.47;227.13;;;;;;;12.20;80.69;100456.00;301185;32;2083;-77
2022/10/13 00:23:50;;;;;;;543.88;227.32;;;;;;;12.21;80.60;100457.69;302201;32;3048;-77
2022/10/13 00:24:01;;;;;;;542.47;227.77;;;;;;;12.21;80.41;100457.69;298868;32;3735;-77
2022/10/13 00:24:11;;;;;;;543.72;230.60;;;;;;;12.20;80.34;100456.00;297533;32;3595;-77
2022/10/13 00:24:21;;;;;;;542.83;232.23;;;;;;;12.20;80.53;100458.63;300304;32;3708;-77
2022/10/13 00:24:32;;;;;;;543.05;234.05;;;;;;;12.19;80.32;100454.28;292683;33;4379;-77
2022/10/13 00:24:42;;;;;;;542.87;234.10;;;;;;;12.20;79.90;100455.13;290921;33;4710;-77
2022/10/13 00:24:53;;;;;;;545.55;234.40;;;;;;;12.20;80.07;100458.63;293348;33;2003;-77
2022/10/13 00:25:04;;;;;;;547.23;233.63;;;;;;;12.21;80.32;100456.84;290458;33;4866;-77
2022/10/13 00:25:14;;;;;;;545.08;231.57;;;;;;;12.21;79.90;100457.69;290472;34;4700;-77
2022/10/13 00:25:24;;;;;;;542.13;231.05;;;;;;;12.20;80.15;100456.00;289275;34;824;-77
2022/10/13 00:25:39;;;;;;;540.97;231.67;;;;;;;12.18;80.02;100455.19;279998;35;1254;-77
2022/10/13 00:25:50;;;;;;;543.55;232.23;;;;;;;12.18;79.84;100454.31;280015;35;927;-77
2022/10/13 00:26:02;;;;;;;545.33;231.77;;;;;;;12.18;79.99;100451.69;276701;35;4485;-77
2022/10/13 00:26:13;;;;;;;545.80;232.55;;;;;;;12.20;79.95;100461.25;275466;35;6506;-77
2022/10/13 00:26:24;;;;;;;544.72;233.55;;;;;;;12.19;80.09;100462.16;273813;36;1223;-77
2022/10/13 00:26:34;;;;;;;544.78;231.80;;;;;;;12.16;80.00;100454.38;273127;35;5995;-77
2022/10/13 00:26:45;;;;;;;544.85;232.63;;;;;;;12.14;79.81;100456.19;273750;35;6561;-77
2022/10/13 00:26:55;;;;;;;545.30;231.77;;;;;;;12.12;79.75;100455.41;271613;36;6351;-77
2022/10/13 00:27:06;;;;;;;542.97;226.33;;;;;;;12.12;79.81;100458.03;269699;36;1043;-77
2022/10/13 00:27:16;;;;;;;543.87;228.87;;;;;;;12.11;79.97;100458.94;271802;36;6907;-77
2022/10/13 00:27:26;;;;;;;544.30;230.63;;;;;;;12.12;79.75;100463.28;271523;36;6510;-76
2022/10/13 00:27:37;;;;;;;546.85;237.43;;;;;;;12.13;79.98;100459.72;267144;36;1278;-76
2022/10/13 00:27:47;;;;;;;546.70;233.93;;;;;;;12.12;79.74;100457.19;267626;36;4700;-76
2022/10/13 00:27:58;;;;;;;545.72;228.82;;;;;;;12.13;79.69;100456.28;264896;36;5149;-76
2022/10/13 00:28:08;;;;;;;545.97;227.60;;;;;;;12.13;79.40;100459.72;264386;37;1239;-76
2022/10/13 00:30:03;;;;;;;509.96;171.70;;;;;;;12.14;79.07;100456.19;2501141;27;20276;-76
2022/10/13 00:30:13;;;;;;;520.17;175.23;;;;;;;12.15;79.28;100452.66;353415;28;992;-76
2022/10/13 00:30:23;;;;;;;520.42;175.25;;;;;;;12.16;79.28;100454.38;350414;28;1375;-76
2022/10/13 00:30:35;;;;;;;522.27;177.77;;;;;;;12.17;79.39;100456.09;348797;28;1734;-77
2022/10/13 00:30:45;;;;;;;520.88;172.40;;;;;;;12.16;79.27;100459.63;348587;28;1563;-75
2022/10/13 00:30:56;;;;;;;520.75;171.27;;;;;;;12.15;79.40;100457.91;349815;28;1277;-75
2022/10/13 00:31:16;;;;;;;522.30;169.73;;;;;;;12.14;79.31;100458.81;348444;28;1315;-77
2022/10/13 00:31:28;;;;;;;521.95;176.38;;;;;;;12.12;79.68;100450.19;347767;28;1639;-76
2022/10/13 00:31:39;;;;;;;520.95;175.57;;;;;;;12.13;79.45;100457.09;347878;28;1134;-75
2022/10/13 00:31:49;;;;;;;523.23;173.27;;;;;;;12.11;79.38;100458.94;348867;28;904;-75
2022/10/13 00:32:00;;;;;;;523.30;173.97;;;;;;;12.11;79.61;100461.56;348747;28;1356;-76
2022/10/13 00:32:10;;;;;;;522.70;172.40;;;;;;;12.08;79.75;100452.94;347343;28;1221;-76
2022/10/13 00:32:21;;;;;;;522.87;171.13;;;;;;;12.08;80.03;100451.19;348943;28;869;-76
2022/10/13 00:32:31;;;;;;;524.85;171.98;;;;;;;12.08;79.68;100453.81;347471;28;1356;-75
2022/10/13 00:32:41;;;;;;;526.93;176.00;;;;;;;12.06;79.35;100460.88;346178;28;869;-75
2022/10/13 00:32:52;;;;;;;525.30;176.15;;;;;;;12.07;79.69;100454.72;347319;28;1209;-75
2022/10/13 00:33:02;;;;;;;524.60;175.23;;;;;;;12.07;79.71;100462.59;348807;28;1250;-75
2022/10/13 00:33:13;;;;;;;520.70;171.60;;;;;;;12.07;79.68;100453.84;350377;28;1213;-76
2022/10/13 00:33:23;;;;;;;521.07;171.47;;;;;;;12.07;79.75;100453.84;347939;28;1338;-76
2022/10/13 00:33:33;;;;;;;518.35;170.23;;;;;;;12.08;79.60;100453.81;344166;28;3891;-76
2022/10/13 00:33:44;;;;;;;521.23;170.40;;;;;;;12.08;79.62;100453.81;346139;28;2666;-76
2022/10/13 00:33:54;;;;;;;522.97;173.20;;;;;;;12.09;79.75;100452.91;348016;28;2952;-76
2022/10/13 00:34:05;;;;;;;527.57;177.80;;;;;;;12.08;79.78;100451.19;347762;28;1547;-76
2022/10/13 00:34:15;;;;;;;525.05;177.70;;;;;;;12.07;79.81;100454.72;345877;28;1548;-76
2022/10/13 00:34:26;;;;;;;523.57;174.77;;;;;;;12.07;79.57;100454.72;344695;28;1030;-77
2022/10/13 00:34:36;;;;;;;522.55;174.95;;;;;;;12.08;79.78;100448.56;346294;28;1434;-77
2022/10/13 00:34:47;;;;;;;522.17;173.57;;;;;;;12.07;79.74;100449.47;347282;28;1318;-77
2022/10/13 00:34:57;;;;;;;523.43;177.20;;;;;;;12.06;79.92;100453.00;346202;28;821;-77
2022/10/13 00:35:08;;;;;;;524.27;178.40;;;;;;;12.06;79.95;100453.00;343433;28;1218;-77
2022/10/13 00:35:18;;;;;;;526.60;177.50;;;;;;;12.06;80.00;100453.00;346150;28;963;-77
2022/10/13 00:35:29;;;;;;;527.38;175.15;;;;;;;12.06;79.82;100447.75;349285;28;1956;-76
2022/10/13 00:35:40;;;;;;;528.80;177.80;;;;;;;12.07;79.94;100453.84;345270;28;1440;-76
2022/10/13 00:35:51;;;;;;;523.88;175.18;;;;;;;12.07;79.86;100451.22;344010;28;1121;-76
2022/10/13 00:36:01;;;;;;;523.53;173.10;;;;;;;12.05;79.65;100446.03;343374;28;1216;-76
2022/10/13 00:36:12;;;;;;;523.17;170.07;;;;;;;12.05;79.98;100451.28;339544;29;1450;-76
2022/10/13 00:36:22;;;;;;;523.80;172.55;;;;;;;12.06;80.05;100449.50;338104;29;1321;-76
2022/10/13 00:36:33;;;;;;;523.20;176.30;;;;;;;12.04;79.90;100449.56;339385;29;1301;-76
2022/10/13 00:36:43;;;;;;;522.22;175.48;;;;;;;12.04;79.80;100444.31;346013;28;1069;-76
2022/10/13 00:36:54;;;;;;;523.90;176.07;;;;;;;12.06;80.22;100453.00;346018;28;1407;-76
2022/10/13 00:37:04;;;;;;;524.95;180.98;;;;;;;12.04;79.78;100457.44;343518;28;1007;-76
2022/10/13 00:37:14;;;;;;;529.47;191.10;;;;;;;12.05;79.84;100451.28;341643;28;1086;-76
2022/10/13 00:37:25;;;;;;;533.47;201.25;;;;;;;12.07;79.95;100454.72;343317;28;1251;-76
2022/10/13 00:37:35;;;;;;;536.40;205.77;;;;;;;12.05;80.19;100456.53;340678;29;1666;-76
2022/10/13 00:37:47;;;;;;;538.08;212.63;;;;;;;12.05;79.92;100450.44;342624;28;1358;-76
2022/10/13 00:37:57;;;;;;;538.40;212.00;;;;;;;12.04;79.75;100457.44;340155;29;1308;-76
2022/10/13 00:38:07;;;;;;;538.50;214.48;;;;;;;12.03;79.93;100450.47;337982;29;1229;-76
2022/10/13 00:38:19;;;;;;;538.97;213.90;;;;;;;12.03;79.45;100458.34;337023;29;849;-76
2022/10/13 00:38:29;;;;;;;541.05;217.68;;;;;;;12.00;80.01;100455.81;341102;28;1292;-76
2022/10/13 00:38:40;;;;;;;541.23;220.03;;;;;;;12.01;79.93;100456.69;341869;28;1115;-76
2022/10/13 00:38:51;;;;;;;540.90;220.25;;;;;;;12.02;79.88;100455.78;340606;29;1978;-76
2022/10/13 00:39:01;;;;;;;539.20;215.80;;;;;;;11.98;79.91;100449.78;339569;29;1214;-76
2022/10/13 00:39:11;;;;;;;538.93;212.73;;;;;;;11.98;79.69;100455.00;339435;29;860;-76
2022/10/13 00:39:22;;;;;;;540.77;212.63;;;;;;;11.97;80.18;100456.78;340761;29;937;-76
2022/10/13 00:39:32;;;;;;;540.22;213.15;;;;;;;11.96;80.07;100455.06;338433;29;1260;-76
2022/10/13 00:39:43;;;;;;;540.73;211.13;;;;;;;11.96;80.07;100459.44;337355;29;1653;-76
2022/10/13 00:39:53;;;;;;;538.15;211.63;;;;;;;11.96;79.92;100449.81;337862;29;1551;-76
2022/10/13 00:40:04;;;;;;;540.70;213.63;;;;;;;11.96;80.06;100451.59;335643;29;893;-76
2022/10/13 00:40:15;;;;;;;539.97;215.77;;;;;;;11.97;80.25;100454.16;336451;29;1803;-76
2022/10/13 00:40:25;;;;;;;541.17;219.23;;;;;;;11.98;80.13;100455.00;335670;29;1928;-76
2022/10/13 00:41:02;;;;;;;539.92;218.23;;;;;;;12.03;79.94;100460.97;336845;29;845;-76
2022/10/13 00:41:12;;;;;;;536.60;217.80;;;;;;;12.03;79.93;100455.72;331200;29;1425;-76
2022/10/13 00:41:23;;;;;;;535.20;213.73;;;;;;;12.02;79.89;100456.63;329462;29;1206;-76
2022/10/13 00:41:33;;;;;;;535.05;211.82;;;;;;;12.00;80.02;100453.19;331634;29;1247;-76
2022/10/13 00:41:44;;;;;;;537.43;213.90;;;;;;;11.99;80.09;100454.09;328345;29;1209;-76
2022/10/13 00:41:55;;;;;;;539.15;213.25;;;;;;;12.01;79.91;100454.06;328009;29;1680;-76
2022/10/13 00:42:05;;;;;;;538.58;214.82;;;;;;;12.01;79.94;100456.69;326855;30;939;-76
2022/10/13 00:42:16;;;;;;;539.00;218.57;;;;;;;12.02;79.84;100454.00;323174;30;1316;-76
2022/10/13 00:42:26;;;;;;;542.10;219.47;;;;;;;12.01;80.02;100456.69;323996;30;2461;-76
2022/10/13 00:42:40;;;;;;;540.38;218.25;;;;;;;12.02;80.03;100456.63;324133;30;2605;-76
2022/10/13 00:42:50;;;;;;;539.10;220.02;;;;;;;12.00;79.84;100453.19;321793;30;3426;-76
2022/10/13 00:43:00;;;;;;;543.97;224.63;;;;;;;12.02;80.08;100458.41;326099;30;2899;-76
2022/10/13 00:43:18;;;;;;;550.15;226.80;;;;;;;11.99;79.77;100456.72;324135;30;2288;-76
2022/10/13 00:44:05;;;;;;;543.75;215.75;;;;;;;12.02;80.06;100455.78;323934;30;1585;-76
2022/10/13 00:44:52;;;;;;;541.38;219.95;;;;;;;12.02;80.13;100456.63;317640;31;2381;-76
2022/10/13 00:45:14;;;;;;;535.92;214.48;;;;;;;11.99;80.13;100456.72;318397;30;1318;-76
2022/10/13 00:45:28;;;;;;;535.40;213.23;;;;;;;11.99;80.32;100454.09;316013;30;2951;-76
2022/10/13 00:45:38;;;;;;;535.88;212.93;;;;;;;11.97;80.38;100454.16;318603;30;2080;-76
2022/10/13 00:45:49;;;;;;;538.35;218.23;;;;;;;11.96;80.30;100457.69;317599;31;1248;-76
2022/10/13 00:46:00;;;;;;;541.55;221.80;;;;;;;11.98;80.74;100457.63;316555;31;2788;-76
2022/10/13 00:46:10;;;;;;;543.63;227.53;;;;;;;11.99;80.39;100461.97;316186;30;2803;-76
2022/10/13 00:46:21;;;;;;;544.22;225.80;;;;;;;11.98;80.33;100452.38;316464;31;1504;-76
2022/10/13 00:46:33;;;;;;;544.37;224.30;;;;;;;11.98;80.11;100458.50;314281;31;862;-76
2022/10/13 00:46:43;;;;;;;541.80;219.07;;;;;;;12.01;80.11;100454.06;310302;31;5240;-76
2022/10/13 00:46:54;;;;;;;541.93;217.37;;;;;;;12.00;80.12;100458.44;307974;31;4530;-76
2022/10/13 00:47:04;;;;;;;543.03;221.35;;;;;;;12.01;80.34;100459.31;308459;32;1223;-76
2022/10/13 00:47:14;;;;;;;543.57;225.77;;;;;;;12.02;80.47;100467.13;307650;31;5004;-76
2022/10/13 00:47:26;;;;;;;541.97;226.97;;;;;;;12.00;80.20;100455.81;304515;32;4599;-76
2022/10/13 00:47:39;;;;;;;543.47;227.00;;;;;;;11.98;80.25;100455.00;301320;32;4186;-76
2022/10/13 00:47:58;;;;;;;542.55;224.65;;;;;;;11.99;80.07;100459.34;301040;32;1349;-76
2022/10/13 00:48:08;;;;;;;542.35;223.02;;;;;;;11.98;80.18;100453.25;296499;32;3171;-76
2022/10/13 00:48:22;;;;;;;543.47;224.65;;;;;;;11.98;80.24;100460.25;298192;33;898;-76
2022/10/13 00:48:33;;;;;;;542.90;225.35;;;;;;;11.99;80.23;100459.34;296176;33;977;-76
2022/10/13 00:48:43;;;;;;;543.67;222.30;;;;;;;12.00;80.46;100455.81;295029;33;6727;-76
2022/10/13 00:48:54;;;;;;;543.05;220.63;;;;;;;11.99;80.37;100454.09;295574;33;7111;-76
2022/10/13 00:49:09;;;;;;;545.42;223.20;;;;;;;11.99;80.54;100461.97;295044;33;808;-76
2022/10/13 00:49:19;;;;;;;546.35;223.35;;;;;;;11.99;80.41;100456.72;294025;33;1322;-76
2022/10/13 00:49:30;;;;;;;541.97;219.87;;;;;;;11.99;80.50;100459.34;297603;33;6865;-76
2022/10/13 00:49:40;;;;;;;541.78;217.35;;;;;;;12.00;80.22;100455.81;297975;32;6668;-77
2022/10/13 00:49:51;;;;;;;541.67;220.23;;;;;;;11.99;80.34;100456.72;299103;33;850;-77
2022/10/13 00:50:02;;;;;;;542.78;224.30;;;;;;;11.98;80.47;100460.25;293578;33;1653;-76
2022/10/13 00:50:18;;;;;;;541.00;224.24;;;;;;;11.98;80.39;100460.25;292524;33;4588;-76
2022/10/13 00:50:32;;;;;;;540.13;219.95;;;;;;;11.97;80.45;100458.53;297261;32;4895;-76
2022/10/13 00:50:43;;;;;;;542.45;221.90;;;;;;;11.97;80.38;100456.78;294609;33;7631;-76
2022/10/13 00:50:53;;;;;;;541.80;222.43;;;;;;;11.98;80.39;100455.00;292085;33;8507;-76
2022/10/13 00:51:04;;;;;;;542.85;223.75;;;;;;;11.98;80.51;100462.88;290398;33;1269;-76
2022/10/13 00:51:16;;;;;;;540.58;218.43;;;;;;;11.96;80.55;100452.44;291677;33;9257;-76
2022/10/13 00:51:28;;;;;;;539.55;215.05;;;;;;;11.96;80.51;100456.84;288324;34;8513;-76
2022/10/13 00:51:44;;;;;;;542.97;216.90;;;;;;;11.96;80.52;100462.06;285780;34;9541;-76
2022/10/13 00:53:17;;;;;;;522.67;196.27;;;;;;;11.95;80.69;100462.97;2491135;27;20494;-76
2022/10/13 00:53:30;;;;;;;533.75;204.48;;;;;;;11.93;80.94;100451.69;350410;28;1343;-76
2022/10/13 00:53:41;;;;;;;533.38;207.24;;;;;;;11.94;80.76;100458.66;346141;28;1392;-76
2022/10/13 00:53:51;;;;;;;534.70;205.23;;;;;;;11.96;80.62;100456.84;346166;28;1212;-76
2022/10/13 00:54:02;;;;;;;538.07;212.27;;;;;;;11.94;80.71;100453.41;346995;28;1350;-76
2022/10/13 00:54:14;;;;;;;540.50;216.17;;;;;;;11.96;80.72;100457.69;344872;28;1219;-76
2022/10/13 00:54:25;;;;;;;540.78;216.60;;;;;;;11.95;80.63;100455.13;344830;28;1283;-76
2022/10/13 00:54:35;;;;;;;539.93;215.37;;;;;;;11.94;80.49;100456.88;346270;28;1094;-76
2022/10/13 00:54:46;;;;;;;539.65;218.95;;;;;;;11.97;80.46;100453.31;349150;28;1322;-75
2022/10/13 00:54:56;;;;;;;538.78;219.80;;;;;;;11.96;80.42;100460.31;346963;28;1644;-75
2022/10/13 00:55:07;;;;;;;540.57;221.63;;;;;;;11.97;80.16;100463.78;347043;28;1259;-75
2022/10/13 00:55:20;;;;;;;539.50;218.70;;;;;;;11.97;80.67;100458.53;348956;28;872;-76
2022/10/13 00:55:31;;;;;;;539.60;219.80;;;;;;;11.96;80.75;100456.84;349017;28;852;-76
2022/10/13 00:55:42;;;;;;;537.75;219.90;;;;;;;11.94;80.69;100456.88;348693;28;1404;-76
2022/10/13 00:55:52;;;;;;;538.05;222.63;;;;;;;11.95;80.69;100460.38;347881;28;1195;-76
2022/10/13 00:56:04;;;;;;;538.47;221.73;;;;;;;11.93;80.68;100447.28;348836;28;1329;-76
2022/10/13 00:56:16;;;;;;;540.13;220.82;;;;;;;11.93;81.05;100456.94;349173;28;983;-76